createdAt,value
2022-09-07T00:00:00.447Z,101288.53
2022-09-07T00:01:04.801Z,101287.25
2022-09-07T00:02:09.286Z,101287.08
2022-09-07T00:03:13.994Z,101284.5
2022-09-07T00:04:18.794Z,101286.08
2022-09-07T00:05:23.258Z,101282.98
2022-09-07T00:06:27.587Z,101280.36
2022-09-07T00:07:31.925Z,101280.87
2022-09-07T00:08:36.274Z,101276.77
2022-09-07T00:09:40.679Z,101281.15
2022-09-07T00:10:45.016Z,101281.7
2022-09-07T00:11:49.356Z,101281.29
2022-09-07T00:12:53.708Z,101283.56
2022-09-07T00:13:58.091Z,101285.73
2022-09-07T00:15:02.524Z,101284.84
2022-09-07T00:16:07.025Z,101282.48
2022-09-07T00:17:11.546Z,101285.18
2022-09-07T00:18:15.886Z,101285.66
2022-09-07T00:19:20.242Z,101286.53
2022-09-07T00:20:24.605Z,101286.59
2022-09-07T00:21:28.983Z,101290.22
2022-09-07T00:22:33.319Z,101296.94
2022-09-07T00:23:37.653Z,101296.08
2022-09-07T00:24:42.035Z,101302.73
2022-09-07T00:25:46.394Z,101299.62
2022-09-07T00:26:55.634Z,101307.25
2022-09-07T00:28:00.049Z,101293.8
2022-09-07T00:29:04.401Z,101300.97
2022-09-07T00:30:08.749Z,101304.22
2022-09-07T00:31:13.238Z,101292.91
2022-09-07T00:32:17.923Z,101297.08
2022-09-07T00:33:22.303Z,101297.94
2022-09-07T00:34:26.625Z,101297.42
2022-09-07T00:35:30.983Z,101299.28
2022-09-07T00:36:35.321Z,101284.98
2022-09-07T00:37:39.734Z,101293.56
2022-09-07T00:38:44.138Z,101289.88
2022-09-07T00:39:48.687Z,101287.01
2022-09-07T00:40:53.150Z,101285.39
2022-09-07T00:41:57.479Z,101284.39
2022-09-07T00:43:01.826Z,101284.5
2022-09-07T00:44:06.182Z,101287.19
2022-09-07T00:45:10.543Z,101277.84
2022-09-07T00:46:15.012Z,101284.22
2022-09-07T00:47:19.449Z,101284.16
2022-09-07T00:48:23.904Z,101284.05
2022-09-07T00:49:28.363Z,101273.81
2022-09-07T00:50:32.708Z,101273.4
2022-09-07T00:51:37.080Z,101276.91
2022-09-07T00:52:41.428Z,101271.2
2022-09-07T00:53:45.986Z,101277.43
2022-09-07T00:54:50.401Z,101276.09
2022-09-07T00:55:54.770Z,101280.13
2022-09-07T00:56:59.122Z,101277.16
2022-09-07T00:58:03.523Z,101284.22
2022-09-07T00:59:07.850Z,101274.3
2022-09-07T01:00:12.219Z,101280.46
2022-09-07T01:01:16.709Z,101272.05
2022-09-07T01:02:21.641Z,101279.53
2022-09-07T01:03:27.221Z,101274.74
2022-09-07T01:04:31.585Z,101275.56
2022-09-07T01:05:35.931Z,101270.85
2022-09-07T01:06:40.330Z,101273.47
2022-09-07T01:07:44.688Z,101271.71
2022-09-07T01:08:49.044Z,101272.72
2022-09-07T01:09:53.656Z,101278.44
2022-09-07T01:10:58.016Z,101280.19
2022-09-07T01:12:02.394Z,101279.44
2022-09-07T01:13:06.806Z,101283.3
2022-09-07T01:14:11.171Z,101278.44
2022-09-07T01:15:15.523Z,101275.64
2022-09-07T01:16:19.976Z,101277.77
2022-09-07T01:17:24.405Z,101276.77
2022-09-07T01:18:28.920Z,101269.88
2022-09-07T01:19:33.539Z,101270.39
2022-09-07T01:20:38.913Z,101264.01
2022-09-07T01:21:43.316Z,101269.8
2022-09-07T01:22:47.715Z,101267.19
2022-09-07T01:23:52.066Z,101272.91
2022-09-07T01:24:56.446Z,101265.25
2022-09-07T01:26:00.844Z,101261.32
2022-09-07T01:27:05.219Z,101263.56
2022-09-07T01:28:09.583Z,101264.01
2022-09-07T01:29:13.983Z,101268.45
2022-09-07T01:30:18.382Z,101259.88
2022-09-07T01:31:22.918Z,101258.04
2022-09-07T01:32:27.436Z,101255.77
2022-09-07T01:33:31.847Z,101263.42
2022-09-07T01:34:36.181Z,101259.39
2022-09-07T01:35:40.560Z,101257.97
2022-09-07T01:36:44.954Z,101257.3
2022-09-07T01:37:51.240Z,101261.41
2022-09-07T01:39:00.377Z,101258.66
2022-09-07T01:40:04.849Z,101256.52
2022-09-07T01:41:09.365Z,101254.28
2022-09-07T01:42:13.753Z,101255.11
2022-09-07T01:43:18.168Z,101250.59
2022-09-07T01:44:22.585Z,101248.9
2022-09-07T01:45:26.974Z,101247.45
2022-09-07T01:46:31.449Z,101240.66
2022-09-07T01:47:35.919Z,101244.2
2022-09-07T01:48:40.320Z,101249.58
2022-09-07T01:49:45.134Z,101248.98
2022-09-07T01:50:49.481Z,101246.78
2022-09-07T01:51:53.846Z,101244.03
2022-09-07T01:52:58.236Z,101249.48
2022-09-07T01:54:02.616Z,101246.78
2022-09-07T01:55:06.994Z,101247.64
2022-09-07T01:56:11.402Z,101240.52
2022-09-07T01:57:15.793Z,101238.65
2022-09-07T01:58:20.380Z,101238.23
2022-09-07T01:59:24.731Z,101240.92
2022-09-07T02:00:29.134Z,101247.23
2022-09-07T02:01:33.600Z,101251.75
2022-09-07T02:02:40.767Z,101251.34
2022-09-07T02:03:45.339Z,101252.61
2022-09-07T02:04:49.752Z,101251.27
2022-09-07T02:05:54.087Z,101248.98
2022-09-07T02:06:58.429Z,101250.82
2022-09-07T02:08:02.827Z,101253.52
2022-09-07T02:09:07.201Z,101253.52
2022-09-07T02:10:11.617Z,101254.44
2022-09-07T02:11:16.000Z,101250.41
2022-09-07T02:12:20.420Z,101250.14
2022-09-07T02:13:24.819Z,101250.48
2022-09-07T02:14:29.248Z,101251.75
2022-09-07T02:15:33.739Z,101248.13
2022-09-07T02:16:38.248Z,101247.23
2022-09-07T02:17:42.638Z,101252.27
2022-09-07T02:18:46.998Z,101247.89
2022-09-07T02:19:51.342Z,101250.31
2022-09-07T02:20:55.701Z,101246.02
2022-09-07T02:22:00.102Z,101242.16
2022-09-07T02:23:04.499Z,101243.16
2022-09-07T02:24:08.876Z,101247.85
2022-09-07T02:25:13.246Z,101247.52
2022-09-07T02:26:17.771Z,101253.3
2022-09-07T02:27:22.135Z,101250.09
2022-09-07T02:28:26.627Z,101251.03
2022-09-07T02:29:32.122Z,101251.69
2022-09-07T02:30:36.492Z,101254.37
2022-09-07T02:31:40.846Z,101250.79
2022-09-07T02:32:45.234Z,101244.14
2022-09-07T02:33:49.583Z,101240.59
2022-09-07T02:34:54.020Z,101233.08
2022-09-07T02:35:58.386Z,101238.59
2022-09-07T02:37:02.772Z,101235.14
2022-09-07T02:38:07.129Z,101230.91
2022-09-07T02:39:11.495Z,101235.84
2022-09-07T02:40:15.886Z,101236.7
2022-09-07T02:41:20.237Z,101232.33
2022-09-07T02:42:24.620Z,101224.67
2022-09-07T02:43:29.006Z,101231.47
2022-09-07T02:44:33.364Z,101227.44
2022-09-07T02:45:37.741Z,101220.64
2022-09-07T02:46:42.130Z,101221.3
2022-09-07T02:47:46.718Z,101227.88
2022-09-07T02:48:51.117Z,101221.89
2022-09-07T02:49:55.474Z,101225
2022-09-07T02:50:59.817Z,101222.5
2022-09-07T02:52:04.235Z,101222.92
2022-09-07T02:53:08.618Z,101221.98
2022-09-07T02:54:12.944Z,101226.95
2022-09-07T02:55:17.362Z,101221.58
2022-09-07T02:56:21.705Z,101222.5
2022-09-07T02:57:26.059Z,101220.23
2022-09-07T02:58:30.481Z,101221.92
2022-09-07T02:59:35.187Z,101219.71
2022-09-07T03:00:39.599Z,101225.53
2022-09-07T03:01:44.181Z,101227.3
2022-09-07T03:02:48.792Z,101227.3
2022-09-07T03:03:53.347Z,101230.39
2022-09-07T03:04:57.747Z,101228.64
2022-09-07T03:06:02.128Z,101224.61
2022-09-07T03:07:06.485Z,101226.87
2022-09-07T03:08:10.863Z,101217.55
2022-09-07T03:09:15.212Z,101218.13
2022-09-07T03:10:19.619Z,101219.71
2022-09-07T03:11:23.988Z,101217.47
2022-09-07T03:12:28.308Z,101216.69
2022-09-07T03:13:32.663Z,101219.03
2022-09-07T03:14:37.010Z,101225.34
2022-09-07T03:15:41.624Z,101226.53
2022-09-07T03:16:46.063Z,101228.2
2022-09-07T03:17:50.410Z,101237.69
2022-09-07T03:18:54.866Z,101238.78
2022-09-07T03:19:59.286Z,101240.87
2022-09-07T03:21:03.692Z,101239.05
2022-09-07T03:22:08.057Z,101234.5
2022-09-07T03:23:12.414Z,101231.81
2022-09-07T03:24:16.821Z,101234.95
2022-09-07T03:25:21.208Z,101234.09
2022-09-07T03:26:25.586Z,101229.98
2022-09-07T03:27:29.955Z,101222.33
2022-09-07T03:28:34.368Z,101223.19
2022-09-07T03:29:42.863Z,101231.33
2022-09-07T03:30:47.555Z,101225.44
2022-09-07T03:31:52.094Z,101217.88
2022-09-07T03:32:56.534Z,101217.55
2022-09-07T03:34:00.907Z,101226.95
2022-09-07T03:35:05.320Z,101220.64
2022-09-07T03:36:09.647Z,101228.3
2022-09-07T03:37:14.051Z,101229.05
2022-09-07T03:38:18.556Z,101233.27
2022-09-07T03:39:22.959Z,101223.33
2022-09-07T03:40:27.362Z,101233.27
2022-09-07T03:41:31.684Z,101227.61
2022-09-07T03:42:36.050Z,101231.47
2022-09-07T03:43:40.416Z,101228.95
2022-09-07T03:44:44.796Z,101228.09
2022-09-07T03:45:49.318Z,101233.13
2022-09-07T03:46:53.729Z,101230.23
2022-09-07T03:47:58.083Z,101229.72
2022-09-07T03:49:02.422Z,101230.05
2022-09-07T03:50:06.786Z,101226.36
2022-09-07T03:51:11.180Z,101224.91
2022-09-07T03:52:15.605Z,101223.38
2022-09-07T03:53:20.040Z,101232.8
2022-09-07T03:54:24.403Z,101230.7
2022-09-07T03:55:28.817Z,101237.34
2022-09-07T03:56:33.228Z,101235.55
2022-09-07T03:57:37.635Z,101233.87
2022-09-07T03:58:41.988Z,101231.18
2022-09-07T03:59:46.463Z,101237.64
2022-09-07T04:00:50.868Z,101230.05
2022-09-07T04:01:55.364Z,101237.64
2022-09-07T04:02:59.882Z,101237.19
2022-09-07T04:04:04.252Z,101235.09
2022-09-07T04:05:08.622Z,101231.97
2022-09-07T04:06:13.160Z,101228.19
2022-09-07T04:07:17.514Z,101234.11
2022-09-07T04:08:21.916Z,101225.77
2022-09-07T04:09:26.282Z,101228.59
2022-09-07T04:10:30.656Z,101226.86
2022-09-07T04:11:35.062Z,101227.39
2022-09-07T04:12:39.446Z,101228.48
2022-09-07T04:13:43.814Z,101225.86
2022-09-07T04:14:48.171Z,101227.45
2022-09-07T04:15:54.957Z,101225.56
2022-09-07T04:16:59.502Z,101225.01
2022-09-07T04:18:03.967Z,101217.77
2022-09-07T04:19:08.318Z,101219.11
2022-09-07T04:20:12.644Z,101214.41
2022-09-07T04:21:17.014Z,101213.47
2022-09-07T04:22:21.414Z,101204.06
2022-09-07T04:23:25.861Z,101204.33
2022-09-07T04:24:30.180Z,101206.2
2022-09-07T04:25:34.548Z,101211.12
2022-09-07T04:26:38.926Z,101211.78
2022-09-07T04:27:43.304Z,101210.41
2022-09-07T04:28:47.662Z,101206.63
2022-09-07T04:29:52.006Z,101207.48
2022-09-07T04:30:56.593Z,101207.48
2022-09-07T04:32:01.080Z,101204.04
2022-09-07T04:33:05.438Z,101201.87
2022-09-07T04:34:09.789Z,101202.6
2022-09-07T04:35:14.180Z,101205.56
2022-09-07T04:36:18.595Z,101206.8
2022-09-07T04:37:22.952Z,101201.84
2022-09-07T04:38:27.401Z,101200.19
2022-09-07T04:39:32.067Z,101200.16
2022-09-07T04:40:36.589Z,101207.29
2022-09-07T04:41:40.957Z,101200.91
2022-09-07T04:42:45.617Z,101199.02
2022-09-07T04:43:49.963Z,101202.19
2022-09-07T04:44:54.309Z,101196.72
2022-09-07T04:45:58.869Z,101198.89
2022-09-07T04:47:03.382Z,101205.19
2022-09-07T04:48:07.761Z,101204.34
2022-09-07T04:49:12.138Z,101207.58
2022-09-07T04:50:16.496Z,101205.07
2022-09-07T04:51:20.865Z,101213.81
2022-09-07T04:52:25.209Z,101215.77
2022-09-07T04:53:29.567Z,101210.3
2022-09-07T04:54:33.937Z,101210.64
2022-09-07T04:55:38.304Z,101210.47
2022-09-07T04:56:42.669Z,101209.27
2022-09-07T04:57:47.055Z,101208.23
2022-09-07T04:58:51.430Z,101202.7
2022-09-07T04:59:55.777Z,101203.8
2022-09-07T05:01:02.264Z,101199.94
2022-09-07T05:02:07.836Z,101195.46
2022-09-07T05:03:12.411Z,101193.78
2022-09-07T05:04:16.789Z,101196.05
2022-09-07T05:05:21.129Z,101193.7
2022-09-07T05:06:25.565Z,101197.42
2022-09-07T05:07:29.960Z,101196.73
2022-09-07T05:08:34.336Z,101199.16
2022-09-07T05:09:38.736Z,101196.25
2022-09-07T05:10:43.084Z,101191.02
2022-09-07T05:11:47.461Z,101196.81
2022-09-07T05:12:51.833Z,101189.92
2022-09-07T05:13:56.209Z,101194.05
2022-09-07T05:15:00.589Z,101190.75
2022-09-07T05:16:05.005Z,101185.63
2022-09-07T05:17:09.507Z,101184.28
2022-09-07T05:18:13.892Z,101185.82
2022-09-07T05:19:18.240Z,101184.72
2022-09-07T05:20:22.627Z,101184.2
2022-09-07T05:21:27.015Z,101187.3
2022-09-07T05:22:31.491Z,101182.11
2022-09-07T05:23:35.867Z,101189.99
2022-09-07T05:24:40.249Z,101187.97
2022-09-07T05:25:44.587Z,101191.17
2022-09-07T05:26:48.964Z,101190.31
2022-09-07T05:27:54.360Z,101189.06
2022-09-07T05:31:20.010Z,101194
2022-09-07T05:32:24.883Z,101188.28
2022-09-07T05:35:34.630Z,101188.8
2022-09-07T05:36:39.048Z,101187.87
2022-09-07T05:37:43.448Z,101194.66
2022-09-07T05:38:47.860Z,101198.37
2022-09-07T05:39:52.355Z,101191.23
2022-09-07T05:40:56.813Z,101192.75
2022-09-07T05:42:01.191Z,101191.23
2022-09-07T05:43:05.625Z,101189.06
2022-09-07T05:45:48.605Z,101190.06
2022-09-07T05:46:53.142Z,101190.48
2022-09-07T05:47:57.514Z,101184.52
2022-09-07T05:49:01.872Z,101186.52
2022-09-07T05:50:06.256Z,101185.59
2022-09-07T05:51:10.633Z,101181.08
2022-09-07T05:52:14.980Z,101180.22
2022-09-07T05:53:19.342Z,101180.22
2022-09-07T05:54:23.712Z,101185.25
2022-09-07T05:55:31.945Z,101185.77
2022-09-07T05:56:36.460Z,101183.91
2022-09-07T05:57:40.919Z,101184.25
2022-09-07T05:58:45.273Z,101190.48
2022-09-07T05:59:49.644Z,101184.84
2022-09-07T06:00:54.014Z,101189.28
2022-09-07T06:01:58.757Z,101191.83
2022-09-07T06:03:03.606Z,101186.38
2022-09-07T06:04:08.158Z,101188.06
2022-09-07T06:05:12.607Z,101185.2
2022-09-07T06:06:16.994Z,101189.83
2022-09-07T06:07:23.972Z,101183.94
2022-09-07T06:08:28.585Z,101190.16
2022-09-07T06:09:33.259Z,101181.7
2022-09-07T06:10:45.757Z,101181.7
2022-09-07T06:11:50.134Z,101179.91
2022-09-07T06:12:54.568Z,101181.25
2022-09-07T06:13:58.945Z,101175.32
2022-09-07T06:15:03.356Z,101185.14
2022-09-07T06:16:07.897Z,101189.16
2022-09-07T06:17:12.383Z,101187.41
2022-09-07T06:18:16.730Z,101196.3
2022-09-07T06:19:21.114Z,101189.65
2022-09-07T06:20:25.521Z,101188.75
2022-09-07T06:21:30.028Z,101191.52
2022-09-07T06:22:34.380Z,101191.52
2022-09-07T06:23:39.024Z,101193.68
2022-09-07T06:24:43.355Z,101194.02
2022-09-07T06:25:47.778Z,101189.16
2022-09-07T06:26:52.167Z,101187.41
2022-09-07T06:27:56.498Z,101179.83
2022-09-07T06:29:00.857Z,101179.91
2022-09-07T06:30:05.211Z,101187.41
2022-09-07T06:31:09.610Z,101181.11
2022-09-07T06:32:44.568Z,101184.2
2022-09-07T06:33:49.641Z,101179.25
2022-09-07T06:34:53.988Z,101179.69
2022-09-07T06:35:58.377Z,101179.17
2022-09-07T06:37:02.734Z,101174.39
2022-09-07T06:38:07.152Z,101179.27
2022-09-07T06:39:11.503Z,101182.72
2022-09-07T06:40:16.092Z,101181.95
2022-09-07T06:43:02.273Z,101175.97
2022-09-07T06:44:06.664Z,101171.12
2022-09-07T06:45:11.355Z,101173.28
2022-09-07T06:48:06.144Z,101177
2022-09-07T06:49:10.547Z,101181.34
2022-09-07T06:50:14.889Z,101180.45
2022-09-07T06:51:19.285Z,101183.55
2022-09-07T06:52:24.219Z,101185.3
2022-09-07T06:53:35.004Z,101182.2
2022-09-07T06:55:11.877Z,101174.48
2022-09-07T06:56:16.225Z,101182.96
2022-09-07T06:57:20.606Z,101183.38
2022-09-07T06:58:25.039Z,101182.03
2022-09-07T06:59:29.573Z,101175.31
2022-09-07T07:00:33.970Z,101184.16
2022-09-07T07:01:38.507Z,101175.23
2022-09-07T07:02:42.887Z,101172.55
2022-09-07T07:03:47.409Z,101179.13
2022-09-07T07:04:51.823Z,101183.98
2022-09-07T07:05:57.249Z,101175.09
2022-09-07T07:07:01.653Z,101177.78
2022-09-07T07:08:06.015Z,101180.47
2022-09-07T07:09:10.397Z,101173.83
2022-09-07T07:10:14.813Z,101181.81
2022-09-07T07:11:21.453Z,101180.88
2022-09-07T07:13:27.311Z,101185.74
2022-09-07T07:14:36.396Z,101187.53
2022-09-07T07:15:47.951Z,101188.95
2022-09-07T07:16:52.352Z,101186.67
2022-09-07T07:18:13.657Z,101183.5
2022-09-07T07:19:34.299Z,101189.29
2022-09-07T07:20:38.724Z,101186.67
2022-09-07T07:22:35.821Z,101185.33
2022-09-07T07:23:49.915Z,101187.19
2022-09-07T07:24:54.334Z,101176.86
2022-09-07T07:25:58.725Z,101182.98
2022-09-07T07:27:03.126Z,101184.4
2022-09-07T07:30:11.819Z,101194.32
2022-09-07T07:31:16.177Z,101183.98
2022-09-07T07:32:20.579Z,101195.32
2022-09-07T07:33:24.997Z,101196.48
2022-09-07T07:34:29.531Z,101194.25
2022-09-07T07:35:33.927Z,101198.77
2022-09-07T07:36:38.284Z,101199.7
2022-09-07T07:37:42.537Z,101188.09
2022-09-07T07:39:03.566Z,101192.98
2022-09-07T07:40:17.788Z,101190.88
2022-09-07T07:42:01.579Z,101184.3
2022-09-07T07:43:09.344Z,101191.78
2022-09-07T07:44:13.539Z,101190.02
2022-09-07T07:45:55.189Z,101196.32
2022-09-07T07:46:59.787Z,101190.53
2022-09-07T07:48:04.204Z,101191.88
2022-09-07T07:49:08.447Z,101189.27
2022-09-07T07:50:42.704Z,101196.66
2022-09-07T07:54:44.805Z,101191.29
2022-09-07T07:55:49.096Z,101188.67
2022-09-07T07:56:53.401Z,101190.88
2022-09-07T07:57:57.615Z,101181.89
2022-09-07T07:59:01.843Z,101188.95
2022-09-07T08:00:06.074Z,101188.02
2022-09-07T08:01:12.812Z,101186.67
2022-09-07T08:02:17.503Z,101183.4
2022-09-07T08:03:21.934Z,101187.88
2022-09-07T08:04:26.229Z,101177.27
2022-09-07T08:05:30.451Z,101187.09
2022-09-07T08:06:34.693Z,101185.84
2022-09-07T08:07:38.959Z,101184.58
2022-09-07T08:08:43.204Z,101181.38
2022-09-07T08:09:47.475Z,101180.81
2022-09-07T08:10:51.706Z,101182.57
2022-09-07T08:11:55.924Z,101187.61
2022-09-07T08:13:00.152Z,101184.74
2022-09-07T08:14:04.379Z,101182.16
2022-09-07T08:15:08.652Z,101181.81
2022-09-07T08:16:13.063Z,101179.55
2022-09-07T08:17:17.415Z,101182.64
2022-09-07T08:18:21.681Z,101178.03
2022-09-07T08:19:26.063Z,101172.23
2022-09-07T08:20:30.401Z,101171.89
2022-09-07T08:21:34.645Z,101173.58
2022-09-07T08:22:38.863Z,101172.58
2022-09-07T08:23:43.111Z,101179.22
2022-09-07T08:24:47.357Z,101180.91
2022-09-07T08:25:51.637Z,101183.33
2022-09-07T08:26:55.876Z,101182.39
2022-09-07T08:28:00.086Z,101178.81
2022-09-07T08:29:04.314Z,101181.91
2022-09-07T08:30:08.552Z,101177.47
2022-09-07T08:31:12.937Z,101177.36
2022-09-07T08:32:17.474Z,101177.81
2022-09-07T08:33:21.716Z,101178.81
2022-09-07T08:34:26.198Z,101175.53
2022-09-07T08:35:30.451Z,101174.53
2022-09-07T08:36:34.675Z,101176.95
2022-09-07T08:37:38.964Z,101177.7
2022-09-07T08:38:43.194Z,101178.81
2022-09-07T08:39:47.582Z,101180.16
2022-09-07T08:40:51.936Z,101176.95
2022-09-07T08:41:56.150Z,101173.6
2022-09-07T08:43:00.385Z,101165.95
2022-09-07T08:44:04.640Z,101170.5
2022-09-07T08:45:08.873Z,101163.78
2022-09-07T08:46:13.272Z,101164.86
2022-09-07T08:47:17.642Z,101168.41
2022-09-07T08:48:21.895Z,101165.55
2022-09-07T08:49:26.147Z,101169.91
2022-09-07T08:50:30.416Z,101166.81
2022-09-07T08:51:34.696Z,101167.75
2022-09-07T08:52:38.903Z,101169.5
2022-09-07T08:53:43.155Z,101165.47
2022-09-07T08:54:47.397Z,101176.15
2022-09-07T08:55:51.621Z,101163.13
2022-09-07T08:57:25.990Z,101167.5
2022-09-07T08:58:50.386Z,101176.91
2022-09-07T08:59:54.761Z,101165.4
2022-09-07T09:01:32.448Z,101168.91
2022-09-07T09:02:45.687Z,101158.58
2022-09-07T09:04:33.887Z,101162.13
2022-09-07T09:06:20.288Z,101161.71
2022-09-07T09:07:24.669Z,101163.88
2022-09-07T09:08:28.919Z,101164.81
2022-09-07T09:09:33.163Z,101159.44
2022-09-07T09:10:37.402Z,101155.33
2022-09-07T09:11:42.674Z,101152.65
2022-09-07T09:12:46.923Z,101153.55
2022-09-07T09:13:51.144Z,101155.82
2022-09-07T09:14:55.378Z,101151.79
2022-09-07T09:15:59.712Z,101150.96
2022-09-07T09:17:04.052Z,101149.17
2022-09-07T09:18:13.915Z,101147.27
2022-09-07T09:19:18.855Z,101148.95
2022-09-07T09:20:26.104Z,101153.89
2022-09-07T09:21:30.314Z,101145.83
2022-09-07T09:22:34.530Z,101142.72
2022-09-07T09:23:38.763Z,101146
2022-09-07T09:24:42.990Z,101137.87
2022-09-07T09:25:47.217Z,101149.71
2022-09-07T09:27:55.625Z,101130.63
2022-09-07T09:28:59.884Z,101145.34
2022-09-07T09:30:04.140Z,101139.97
2022-09-07T09:31:08.424Z,101134.07
2022-09-07T09:32:12.758Z,101132.91
2022-09-07T09:33:16.957Z,101127.53
2022-09-07T09:34:28.653Z,101127.35
2022-09-07T09:35:38.327Z,101125.19
2022-09-07T09:36:42.589Z,101119.29
2022-09-07T09:37:46.843Z,101118.8
2022-09-07T09:38:51.095Z,101123.66
2022-09-07T09:39:59.223Z,101121.84
2022-09-07T09:41:07.044Z,101118.22
2022-09-07T09:42:11.283Z,101118.89
2022-09-07T09:43:15.541Z,101123.41
2022-09-07T09:44:19.774Z,101107.63
2022-09-07T09:45:24.014Z,101108.56
2022-09-07T09:46:28.554Z,101116.88
2022-09-07T09:47:33.695Z,101109.3
2022-09-07T09:48:38.078Z,101113.33
2022-09-07T09:49:42.327Z,101113.84
2022-09-07T09:53:20.834Z,101108.98
2022-09-07T09:54:25.048Z,101108.05
2022-09-07T09:55:36.523Z,101110.74
2022-09-07T09:56:40.985Z,101102.16
2022-09-07T09:59:55.100Z,101102.58
2022-09-07T10:01:36.504Z,101110.08
2022-09-07T10:04:55.525Z,101102.09
2022-09-07T10:05:59.734Z,101097.65
2022-09-07T10:07:03.972Z,101098.99
2022-09-07T10:08:08.205Z,101101.67
2022-09-07T10:09:12.469Z,101099.75
2022-09-07T10:10:16.669Z,101096.64
2022-09-07T10:11:21.283Z,101101.09
2022-09-07T10:12:25.950Z,101093.09
2022-09-07T10:13:30.373Z,101100.16
2022-09-07T10:14:34.622Z,101094.86
2022-09-07T10:15:42.423Z,101100.75
2022-09-07T10:16:46.744Z,101098.99
2022-09-07T10:17:50.965Z,101094.03
2022-09-07T10:18:55.202Z,101093.17
2022-09-07T10:19:59.411Z,101086.04
2022-09-07T10:21:03.684Z,101097.3
2022-09-07T10:22:07.896Z,101091.41
2022-09-07T10:23:12.108Z,101092.17
2022-09-07T10:24:16.335Z,101085.03
2022-09-07T10:25:20.607Z,101081.59
2022-09-07T10:26:24.839Z,101090.83
2022-09-07T10:27:29.104Z,101072.45
2022-09-07T10:29:06.914Z,101081.86
2022-09-07T10:30:11.973Z,101082.28
2022-09-07T10:31:16.878Z,101084.89
2022-09-07T10:32:21.221Z,101086.65
2022-09-07T10:33:25.480Z,101082.09
2022-09-07T10:34:29.730Z,101087.73
2022-09-07T10:35:33.982Z,101083.78
2022-09-07T10:36:38.200Z,101091.36
2022-09-07T10:37:42.446Z,101090.09
2022-09-07T10:38:46.723Z,101086.12
2022-09-07T10:39:51.066Z,101082.55
2022-09-07T10:40:59.062Z,101085.64
2022-09-07T10:42:03.519Z,101086.05
2022-09-07T10:43:23.766Z,101079.75
2022-09-07T10:44:28.110Z,101084.23
2022-09-07T10:45:32.416Z,101087.25
2022-09-07T10:47:06.694Z,101084.56
2022-09-07T10:48:11.041Z,101089.5
2022-09-07T10:49:15.310Z,101087.33
2022-09-07T10:50:23.530Z,101082.88
2022-09-07T10:51:27.870Z,101094.87
2022-09-07T10:52:32.086Z,101087.73
2022-09-07T10:53:44.207Z,101096.8
2022-09-07T10:54:49.001Z,101091.77
2022-09-07T10:55:53.333Z,101099.42
2022-09-07T10:56:57.574Z,101089.5
2022-09-07T10:58:01.843Z,101098
2022-09-07T10:59:06.166Z,101086.05
2022-09-07T11:00:11.821Z,101086.4
2022-09-07T11:01:16.444Z,101098
2022-09-07T11:02:20.926Z,101075.5
2022-09-07T11:03:27.303Z,101084.46
2022-09-07T11:04:32.176Z,101080.95
2022-09-07T11:05:39.460Z,101082.22
2022-09-07T11:06:43.708Z,101082.3
2022-09-07T11:07:47.938Z,101074.23
2022-09-07T11:09:22.280Z,101078.67
2022-09-07T11:10:26.555Z,101067.92
2022-09-07T11:12:04.693Z,101073.64
2022-09-07T11:13:09.131Z,101068.19
2022-09-07T11:14:14.817Z,101072.63
2022-09-07T11:15:20.077Z,101068.19
2022-09-07T11:16:54.454Z,101069.95
2022-09-07T11:17:58.878Z,101066.44
2022-09-07T11:19:37.410Z,101060.13
2022-09-07T11:20:42.027Z,101066.84
2022-09-07T11:22:01.778Z,101058.27
2022-09-07T11:23:06.002Z,101060.95
2022-09-07T11:24:10.268Z,101060.05
2022-09-07T11:25:30.605Z,101064.91
2022-09-07T11:26:35.110Z,101055.09
2022-09-07T11:27:39.385Z,101059.88
2022-09-07T11:28:43.966Z,101063.98
2022-09-07T11:29:48.670Z,101064.08
2022-09-07T11:30:59.777Z,101057.7
2022-09-07T11:32:04.386Z,101056.77
2022-09-07T11:33:08.597Z,101053.56
2022-09-07T11:34:28.265Z,101044.27
2022-09-07T11:35:32.551Z,101055.09
2022-09-07T11:36:36.802Z,101037.95
2022-09-07T11:37:41.064Z,101037.95
2022-09-07T11:38:45.295Z,101042.92
2022-09-07T11:39:49.617Z,101042.48
2022-09-07T11:40:54.023Z,101041.06
2022-09-07T11:41:58.814Z,101042.81
2022-09-07T11:43:04.096Z,101030.83
2022-09-07T11:44:08.395Z,101029.89
2022-09-07T11:45:15.616Z,101032.51
2022-09-07T11:46:19.962Z,101022.17
2022-09-07T11:47:24.358Z,101024.78
2022-09-07T11:48:31.539Z,101026.61
2022-09-07T11:49:36.366Z,101028.3
2022-09-07T11:50:40.615Z,101028.81
2022-09-07T11:51:44.877Z,101025.61
2022-09-07T11:52:54.626Z,101028.64
2022-09-07T11:53:58.871Z,101032.25
2022-09-07T11:55:03.118Z,101022.33
2022-09-07T11:56:07.372Z,101027.7
2022-09-07T11:57:11.637Z,101015.61
2022-09-07T11:58:15.860Z,101030.73
2022-09-07T11:59:20.128Z,101027.04
2022-09-07T12:00:24.491Z,101030.17
2022-09-07T12:01:28.765Z,101016.73
2022-09-07T12:03:00.451Z,101022
2022-09-07T12:04:05.620Z,101028.83
2022-09-07T12:05:10.075Z,101020.66
2022-09-07T12:06:14.278Z,101021.52
2022-09-07T12:07:20.848Z,101025.62
2022-09-07T12:08:25.142Z,101029.58
2022-09-07T12:09:29.430Z,101031.34
2022-09-07T12:10:33.803Z,101033.95
2022-09-07T12:11:38.038Z,101023.69
2022-09-07T12:12:42.278Z,101024.88
2022-09-07T12:13:46.531Z,101027.13
2022-09-07T12:14:50.751Z,101028.8
2022-09-07T12:15:55.233Z,101030.08
2022-09-07T12:16:59.531Z,101029.48
2022-09-07T12:18:03.735Z,101023.2
2022-09-07T12:19:07.977Z,101024.03
2022-09-07T12:20:12.265Z,101022.69
2022-09-07T12:21:16.478Z,101019.92
2022-09-07T12:22:21.374Z,101026.72
2022-09-07T12:23:25.624Z,101027.91
2022-09-07T12:24:29.827Z,101016.72
2022-09-07T12:25:34.095Z,101021.53
2022-09-07T12:26:38.379Z,101017.16
2022-09-07T12:27:42.896Z,101016.23
2022-09-07T12:28:47.150Z,101015.56
2022-09-07T12:29:51.368Z,101024.11
2022-09-07T12:30:55.820Z,101016.91
2022-09-07T12:34:01.061Z,101012.69
2022-09-07T12:35:05.309Z,101001.19
2022-09-07T12:36:09.552Z,101003.39
2022-09-07T12:37:13.778Z,101015.38
2022-09-07T12:38:18.011Z,101013.03
2022-09-07T12:39:22.254Z,101004.92
2022-09-07T12:40:26.502Z,101002.08
2022-09-07T12:41:30.749Z,101000.55
2022-09-07T12:42:38.076Z,100996.52
2022-09-07T12:43:42.347Z,101004.17
2022-09-07T12:44:46.665Z,100996.94
2022-09-07T12:45:51.056Z,100998.2
2022-09-07T12:46:55.551Z,100994.51
2022-09-07T12:47:59.814Z,100989.95
2022-09-07T12:49:04.063Z,100993.42
2022-09-07T12:50:10.045Z,100980.39
2022-09-07T12:51:14.826Z,100988.8
2022-09-07T12:52:20.821Z,100982
2022-09-07T12:53:25.148Z,100981.48
2022-09-07T12:54:29.472Z,100983.16
2022-09-07T12:56:15.111Z,100979.13
2022-09-07T12:57:35.651Z,100979.39
2022-09-07T12:58:39.882Z,100978.98